sensor_id;sensor_type;location;lat;lon;timestamp;P1;durP1;ratioP1;P2;durP2;ratioP2
8857;SDS011;4465;50.904;4.696;2023-09-08T00:00:25;12.57;;;7.53;;
8857;SDS011;4465;50.904;4.696;2023-09-08T00:02:50;12.25;;;6.90;;
8857;SDS011;4465;50.904;4.696;2023-09-08T00:05:16;15.95;;;6.88;;
8857;SDS011;4465;50.904;4.696;2023-09-08T00:07:44;12.15;;;7.43;;
8857;SDS011;4465;50.904;4.696;2023-09-08T00:10:10;13.40;;;7.00;;
8857;SDS011;4465;50.904;4.696;2023-09-08T00:12:38;12.13;;;7.35;;
8857;SDS011;4465;50.904;4.696;2023-09-08T00:15:05;12.98;;;7.03;;
8857;SDS011;4465;50.904;4.696;2023-09-08T00:17:34;10.60;;;7.00;;
8857;SDS011;4465;50.904;4.696;2023-09-08T00:20:01;11.75;;;7.43;;
8857;SDS011;4465;50.904;4.696;2023-09-08T00:22:34;13.70;;;7.55;;
8857;SDS011;4465;50.904;4.696;2023-09-08T00:25:00;12.73;;;7.78;;
8857;SDS011;4465;50.904;4.696;2023-09-08T00:27:26;12.15;;;7.65;;
8857;SDS011;4465;50.904;4.696;2023-09-08T00:29:54;12.27;;;7.20;;
8857;SDS011;4465;50.904;4.696;2023-09-08T00:32:19;12.35;;;6.82;;
8857;SDS011;4465;50.904;4.696;2023-09-08T00:34:45;13.32;;;7.80;;
8857;SDS011;4465;50.904;4.696;2023-09-08T00:37:11;9.52;;;6.65;;
8857;SDS011;4465;50.904;4.696;2023-09-08T00:39:37;15.40;;;7.97;;
8857;SDS011;4465;50.904;4.696;2023-09-08T00:42:03;13.23;;;8.30;;
8857;SDS011;4465;50.904;4.696;2023-09-08T00:44:34;14.32;;;8.60;;
8857;SDS011;4465;50.904;4.696;2023-09-08T00:47:02;13.65;;;8.38;;
8857;SDS011;4465;50.904;4.696;2023-09-08T00:49:28;15.27;;;8.18;;
8857;SDS011;4465;50.904;4.696;2023-09-08T00:51:57;11.70;;;7.72;;
8857;SDS011;4465;50.904;4.696;2023-09-08T00:54:23;11.55;;;8.30;;
8857;SDS011;4465;50.904;4.696;2023-09-08T00:56:49;13.80;;;7.68;;
8857;SDS011;4465;50.904;4.696;2023-09-08T00:59:20;19.75;;;7.97;;
8857;SDS011;4465;50.904;4.696;2023-09-08T01:01:46;12.10;;;7.70;;
8857;SDS011;4465;50.904;4.696;2023-09-08T01:04:12;13.63;;;8.30;;
8857;SDS011;4465;50.904;4.696;2023-09-08T01:06:40;12.48;;;7.82;;
8857;SDS011;4465;50.904;4.696;2023-09-08T01:09:07;15.02;;;7.30;;
8857;SDS011;4465;50.904;4.696;2023-09-08T01:11:33;11.55;;;7.68;;
8857;SDS011;4465;50.904;4.696;2023-09-08T01:13:59;10.90;;;7.68;;
8857;SDS011;4465;50.904;4.696;2023-09-08T01:16:28;10.40;;;7.53;;
8857;SDS011;4465;50.904;4.696;2023-09-08T01:18:54;13.45;;;7.75;;
8857;SDS011;4465;50.904;4.696;2023-09-08T01:21:48;11.80;;;8.13;;
8857;SDS011;4465;50.904;4.696;2023-09-08T01:27:22;14.55;;;7.65;;
8857;SDS011;4465;50.904;4.696;2023-09-08T01:29:51;12.00;;;8.25;;
8857;SDS011;4465;50.904;4.696;2023-09-08T01:34:44;13.35;;;8.45;;
8857;SDS011;4465;50.904;4.696;2023-09-08T01:37:12;12.45;;;7.93;;
8857;SDS011;4465;50.904;4.696;2023-09-08T01:39:38;14.23;;;8.60;;
8857;SDS011;4465;50.904;4.696;2023-09-08T01:42:04;11.88;;;8.23;;
8857;SDS011;4465;50.904;4.696;2023-09-08T01:44:30;12.18;;;8.10;;
8857;SDS011;4465;50.904;4.696;2023-09-08T01:46:58;12.25;;;7.88;;
8857;SDS011;4465;50.904;4.696;2023-09-08T01:49:24;13.65;;;8.23;;
8857;SDS011;4465;50.904;4.696;2023-09-08T01:51:52;15.30;;;8.38;;
8857;SDS011;4465;50.904;4.696;2023-09-08T01:54:20;13.75;;;8.38;;
8857;SDS011;4465;50.904;4.696;2023-09-08T01:56:46;13.70;;;7.97;;
8857;SDS011;4465;50.904;4.696;2023-09-08T01:59:12;12.57;;;7.93;;
8857;SDS011;4465;50.904;4.696;2023-09-08T02:01:38;11.57;;;7.47;;
8857;SDS011;4465;50.904;4.696;2023-09-08T02:04:05;12.00;;;7.72;;
8857;SDS011;4465;50.904;4.696;2023-09-08T02:06:31;18.02;;;8.88;;
8857;SDS011;4465;50.904;4.696;2023-09-08T02:08:57;14.57;;;8.38;;
8857;SDS011;4465;50.904;4.696;2023-09-08T02:11:27;16.08;;;8.50;;
8857;SDS011;4465;50.904;4.696;2023-09-08T02:13:53;14.10;;;8.45;;
8857;SDS011;4465;50.904;4.696;2023-09-08T02:16:22;13.43;;;8.43;;
8857;SDS011;4465;50.904;4.696;2023-09-08T02:18:50;12.07;;;7.28;;
8857;SDS011;4465;50.904;4.696;2023-09-08T02:21:18;13.10;;;7.95;;
8857;SDS011;4465;50.904;4.696;2023-09-08T02:23:44;13.02;;;8.57;;
8857;SDS011;4465;50.904;4.696;2023-09-08T02:26:10;14.20;;;8.73;;
8857;SDS011;4465;50.904;4.696;2023-09-08T02:28:36;12.95;;;8.50;;
8857;SDS011;4465;50.904;4.696;2023-09-08T02:31:01;13.02;;;7.70;;
8857;SDS011;4465;50.904;4.696;2023-09-08T02:33:30;12.70;;;7.85;;
8857;SDS011;4465;50.904;4.696;2023-09-08T02:36:00;14.60;;;8.20;;
8857;SDS011;4465;50.904;4.696;2023-09-08T02:38:31;13.52;;;7.97;;
8857;SDS011;4465;50.904;4.696;2023-09-08T02:40:57;11.32;;;7.78;;
8857;SDS011;4465;50.904;4.696;2023-09-08T02:43:25;11.40;;;7.80;;
8857;SDS011;4465;50.904;4.696;2023-09-08T02:45:56;14.55;;;7.60;;
8857;SDS011;4465;50.904;4.696;2023-09-08T02:48:22;11.43;;;7.50;;
8857;SDS011;4465;50.904;4.696;2023-09-08T02:50:47;11.95;;;7.30;;
8857;SDS011;4465;50.904;4.696;2023-09-08T02:53:13;11.70;;;7.43;;
8857;SDS011;4465;50.904;4.696;2023-09-08T02:55:39;12.63;;;7.82;;
8857;SDS011;4465;50.904;4.696;2023-09-08T02:58:05;14.63;;;8.70;;
8857;SDS011;4465;50.904;4.696;2023-09-08T03:00:31;13.50;;;8.50;;
8857;SDS011;4465;50.904;4.696;2023-09-08T03:02:57;12.88;;;8.65;;
8857;SDS011;4465;50.904;4.696;2023-09-08T03:05:27;13.25;;;8.38;;
8857;SDS011;4465;50.904;4.696;2023-09-08T03:07:53;16.73;;;8.95;;
8857;SDS011;4465;50.904;4.696;2023-09-08T03:10:19;15.43;;;8.70;;
8857;SDS011;4465;50.904;4.696;2023-09-08T03:12:47;13.13;;;8.70;;
8857;SDS011;4465;50.904;4.696;2023-09-08T03:15:13;12.95;;;8.05;;
8857;SDS011;4465;50.904;4.696;2023-09-08T03:17:42;13.45;;;8.43;;
8857;SDS011;4465;50.904;4.696;2023-09-08T03:20:10;14.40;;;8.32;;
8857;SDS011;4465;50.904;4.696;2023-09-08T03:22:39;16.25;;;8.50;;
8857;SDS011;4465;50.904;4.696;2023-09-08T03:25:10;12.18;;;8.55;;
8857;SDS011;4465;50.904;4.696;2023-09-08T03:27:35;14.20;;;8.55;;
8857;SDS011;4465;50.904;4.696;2023-09-08T03:30:03;12.23;;;8.50;;
8857;SDS011;4465;50.904;4.696;2023-09-08T03:32:30;12.57;;;8.00;;
8857;SDS011;4465;50.904;4.696;2023-09-08T03:34:56;12.15;;;8.13;;
8857;SDS011;4465;50.904;4.696;2023-09-08T03:37:25;15.70;;;8.25;;
8857;SDS011;4465;50.904;4.696;2023-09-08T03:39:56;13.80;;;8.60;;
8857;SDS011;4465;50.904;4.696;2023-09-08T03:42:24;11.02;;;7.78;;
8857;SDS011;4465;50.904;4.696;2023-09-08T03:44:52;18.23;;;8.45;;
8857;SDS011;4465;50.904;4.696;2023-09-08T03:47:21;13.60;;;8.43;;
8857;SDS011;4465;50.904;4.696;2023-09-08T03:49:47;12.13;;;7.80;;
8857;SDS011;4465;50.904;4.696;2023-09-08T03:52:12;13.82;;;8.13;;
8857;SDS011;4465;50.904;4.696;2023-09-08T03:54:40;24.13;;;8.25;;
8857;SDS011;4465;50.904;4.696;2023-09-08T03:57:06;12.73;;;8.05;;
8857;SDS011;4465;50.904;4.696;2023-09-08T03:59:32;12.60;;;7.68;;
8857;SDS011;4465;50.904;4.696;2023-09-08T04:01:58;14.25;;;7.60;;
8857;SDS011;4465;50.904;4.696;2023-09-08T04:04:24;12.82;;;7.75;;
8857;SDS011;4465;50.904;4.696;2023-09-08T04:06:50;12.75;;;7.63;;
8857;SDS011;4465;50.904;4.696;2023-09-08T04:09:15;13.63;;;7.70;;
8857;SDS011;4465;50.904;4.696;2023-09-08T04:11:41;11.57;;;7.53;;
8857;SDS011;4465;50.904;4.696;2023-09-08T04:14:07;12.48;;;7.97;;
8857;SDS011;4465;50.904;4.696;2023-09-08T04:16:33;13.30;;;7.63;;
8857;SDS011;4465;50.904;4.696;2023-09-08T04:18:59;13.02;;;7.95;;
8857;SDS011;4465;50.904;4.696;2023-09-08T04:21:25;10.23;;;7.18;;
8857;SDS011;4465;50.904;4.696;2023-09-08T04:23:51;10.77;;;7.15;;
8857;SDS011;4465;50.904;4.696;2023-09-08T04:26:19;14.57;;;7.72;;
8857;SDS011;4465;50.904;4.696;2023-09-08T04:28:44;10.43;;;7.75;;
8857;SDS011;4465;50.904;4.696;2023-09-08T04:31:10;11.63;;;7.05;;
8857;SDS011;4465;50.904;4.696;2023-09-08T04:33:36;14.63;;;7.70;;
8857;SDS011;4465;50.904;4.696;2023-09-08T04:36:04;11.68;;;7.68;;
8857;SDS011;4465;50.904;4.696;2023-09-08T04:38:29;11.23;;;6.90;;
8857;SDS011;4465;50.904;4.696;2023-09-08T04:40:56;13.50;;;7.45;;
8857;SDS011;4465;50.904;4.696;2023-09-08T04:43:22;10.93;;;7.53;;
8857;SDS011;4465;50.904;4.696;2023-09-08T04:45:48;12.65;;;7.13;;
8857;SDS011;4465;50.904;4.696;2023-09-08T04:48:15;11.75;;;7.68;;
8857;SDS011;4465;50.904;4.696;2023-09-08T04:50:43;10.73;;;6.57;;
8857;SDS011;4465;50.904;4.696;2023-09-08T04:53:09;11.55;;;7.50;;
8857;SDS011;4465;50.904;4.696;2023-09-08T04:55:37;14.77;;;7.65;;
8857;SDS011;4465;50.904;4.696;2023-09-08T04:58:03;11.18;;;7.85;;
8857;SDS011;4465;50.904;4.696;2023-09-08T05:00:29;15.18;;;7.30;;
8857;SDS011;4465;50.904;4.696;2023-09-08T05:02:55;10.68;;;7.15;;
8857;SDS011;4465;50.904;4.696;2023-09-08T05:05:21;16.65;;;7.53;;
8857;SDS011;4465;50.904;4.696;2023-09-08T05:07:46;14.27;;;8.80;;
8857;SDS011;4465;50.904;4.696;2023-09-08T05:10:13;16.45;;;9.52;;
8857;SDS011;4465;50.904;4.696;2023-09-08T05:12:39;16.98;;;9.88;;
8857;SDS011;4465;50.904;4.696;2023-09-08T05:15:05;13.68;;;8.93;;
8857;SDS011;4465;50.904;4.696;2023-09-08T05:17:35;15.50;;;10.05;;
8857;SDS011;4465;50.904;4.696;2023-09-08T05:20:01;18.50;;;10.13;;
8857;SDS011;4465;50.904;4.696;2023-09-08T05:22:28;14.18;;;9.30;;
8857;SDS011;4465;50.904;4.696;2023-09-08T05:24:54;16.60;;;10.75;;
8857;SDS011;4465;50.904;4.696;2023-09-08T05:27:20;15.70;;;9.40;;
8857;SDS011;4465;50.904;4.696;2023-09-08T05:29:48;15.73;;;9.27;;
8857;SDS011;4465;50.904;4.696;2023-09-08T05:32:14;14.35;;;9.07;;
8857;SDS011;4465;50.904;4.696;2023-09-08T05:34:40;16.55;;;8.63;;
8857;SDS011;4465;50.904;4.696;2023-09-08T05:37:06;16.50;;;9.32;;
8857;SDS011;4465;50.904;4.696;2023-09-08T05:39:32;16.20;;;8.95;;
8857;SDS011;4465;50.904;4.696;2023-09-08T05:41:58;17.10;;;9.93;;
8857;SDS011;4465;50.904;4.696;2023-09-08T05:44:24;16.13;;;10.15;;
8857;SDS011;4465;50.904;4.696;2023-09-08T05:46:50;17.63;;;10.45;;
8857;SDS011;4465;50.904;4.696;2023-09-08T05:49:16;15.20;;;9.75;;
8857;SDS011;4465;50.904;4.696;2023-09-08T05:51:43;21.05;;;9.52;;
8857;SDS011;4465;50.904;4.696;2023-09-08T05:54:12;16.95;;;10.43;;
8857;SDS011;4465;50.904;4.696;2023-09-08T05:56:40;16.17;;;10.15;;
8857;SDS011;4465;50.904;4.696;2023-09-08T05:59:06;16.40;;;10.63;;
8857;SDS011;4465;50.904;4.696;2023-09-08T06:01:32;15.70;;;10.25;;
8857;SDS011;4465;50.904;4.696;2023-09-08T06:03:58;18.88;;;10.70;;
8857;SDS011;4465;50.904;4.696;2023-09-08T06:06:24;17.40;;;9.80;;
8857;SDS011;4465;50.904;4.696;2023-09-08T06:08:55;19.08;;;11.60;;
8857;SDS011;4465;50.904;4.696;2023-09-08T06:11:21;17.10;;;10.23;;
8857;SDS011;4465;50.904;4.696;2023-09-08T06:13:47;18.77;;;10.45;;
8857;SDS011;4465;50.904;4.696;2023-09-08T06:16:13;20.88;;;11.38;;
8857;SDS011;4465;50.904;4.696;2023-09-08T06:18:39;18.77;;;10.57;;
8857;SDS011;4465;50.904;4.696;2023-09-08T06:21:09;16.42;;;10.70;;
8857;SDS011;4465;50.904;4.696;2023-09-08T06:23:37;18.75;;;10.55;;
8857;SDS011;4465;50.904;4.696;2023-09-08T06:26:05;19.42;;;10.93;;
8857;SDS011;4465;50.904;4.696;2023-09-08T06:28:31;21.35;;;11.15;;
8857;SDS011;4465;50.904;4.696;2023-09-08T06:30:57;20.35;;;11.52;;
8857;SDS011;4465;50.904;4.696;2023-09-08T06:33:23;23.38;;;11.75;;
8857;SDS011;4465;50.904;4.696;2023-09-08T06:35:49;19.80;;;11.38;;
8857;SDS011;4465;50.904;4.696;2023-09-08T06:38:15;18.00;;;11.40;;
8857;SDS011;4465;50.904;4.696;2023-09-08T06:40:42;25.08;;;11.55;;
8857;SDS011;4465;50.904;4.696;2023-09-08T06:43:08;16.73;;;10.55;;
8857;SDS011;4465;50.904;4.696;2023-09-08T06:45:37;15.88;;;9.68;;
8857;SDS011;4465;50.904;4.696;2023-09-08T06:48:04;17.00;;;10.50;;
8857;SDS011;4465;50.904;4.696;2023-09-08T06:50:30;20.50;;;10.18;;
8857;SDS011;4465;50.904;4.696;2023-09-08T06:52:56;16.48;;;10.20;;
8857;SDS011;4465;50.904;4.696;2023-09-08T06:55:22;15.43;;;9.05;;
8857;SDS011;4465;50.904;4.696;2023-09-08T06:57:48;18.10;;;9.88;;
8857;SDS011;4465;50.904;4.696;2023-09-08T07:00:16;14.35;;;8.98;;
8857;SDS011;4465;50.904;4.696;2023-09-08T07:02:45;14.82;;;8.73;;
8857;SDS011;4465;50.904;4.696;2023-09-08T07:05:11;13.40;;;8.45;;
8857;SDS011;4465;50.904;4.696;2023-09-08T07:07:39;15.13;;;9.00;;
8857;SDS011;4465;50.904;4.696;2023-09-08T07:10:08;13.00;;;7.97;;
8857;SDS011;4465;50.904;4.696;2023-09-08T07:12:34;14.90;;;8.40;;
8857;SDS011;4465;50.904;4.696;2023-09-08T07:15:00;12.55;;;8.30;;
8857;SDS011;4465;50.904;4.696;2023-09-08T07:17:28;14.88;;;8.65;;
8857;SDS011;4465;50.904;4.696;2023-09-08T07:19:56;12.13;;;7.65;;
8857;SDS011;4465;50.904;4.696;2023-09-08T07:22:23;13.73;;;8.43;;
8857;SDS011;4465;50.904;4.696;2023-09-08T07:24:48;13.60;;;8.50;;
8857;SDS011;4465;50.904;4.696;2023-09-08T07:27:14;12.13;;;7.88;;
8857;SDS011;4465;50.904;4.696;2023-09-08T07:29:43;12.95;;;7.65;;
8857;SDS011;4465;50.904;4.696;2023-09-08T07:32:10;11.13;;;6.70;;
8857;SDS011;4465;50.904;4.696;2023-09-08T07:34:37;12.55;;;7.57;;
8857;SDS011;4465;50.904;4.696;2023-09-08T07:37:03;12.30;;;7.85;;
8857;SDS011;4465;50.904;4.696;2023-09-08T07:39:29;13.63;;;7.53;;
8857;SDS011;4465;50.904;4.696;2023-09-08T07:41:55;12.55;;;7.45;;
8857;SDS011;4465;50.904;4.696;2023-09-08T07:44:21;13.95;;;7.45;;
8857;SDS011;4465;50.904;4.696;2023-09-08T07:46:50;11.52;;;7.55;;
8857;SDS011;4465;50.904;4.696;2023-09-08T07:49:17;11.73;;;7.70;;
8857;SDS011;4465;50.904;4.696;2023-09-08T07:51:44;12.07;;;7.60;;
8857;SDS011;4465;50.904;4.696;2023-09-08T07:54:10;14.82;;;7.57;;
8857;SDS011;4465;50.904;4.696;2023-09-08T07:56:38;12.98;;;7.45;;
8857;SDS011;4465;50.904;4.696;2023-09-08T07:59:07;9.90;;;6.80;;
8857;SDS011;4465;50.904;4.696;2023-09-08T08:01:33;10.88;;;7.20;;
8857;SDS011;4465;50.904;4.696;2023-09-08T08:03:58;10.45;;;6.35;;
8857;SDS011;4465;50.904;4.696;2023-09-08T08:06:24;12.75;;;7.13;;
8857;SDS011;4465;50.904;4.696;2023-09-08T08:08:50;15.02;;;7.28;;
8857;SDS011;4465;50.904;4.696;2023-09-08T08:11:16;12.27;;;6.68;;
8857;SDS011;4465;50.904;4.696;2023-09-08T08:13:45;11.32;;;6.93;;
8857;SDS011;4465;50.904;4.696;2023-09-08T08:16:14;10.25;;;6.60;;
8857;SDS011;4465;50.904;4.696;2023-09-08T08:18:40;11.95;;;6.90;;
8857;SDS011;4465;50.904;4.696;2023-09-08T08:21:06;11.80;;;6.70;;
8857;SDS011;4465;50.904;4.696;2023-09-08T08:23:31;10.75;;;6.95;;
8857;SDS011;4465;50.904;4.696;2023-09-08T08:25:59;12.38;;;7.10;;
8857;SDS011;4465;50.904;4.696;2023-09-08T08:28:27;12.32;;;7.50;;
8857;SDS011;4465;50.904;4.696;2023-09-08T08:30:58;10.98;;;6.97;;
8857;SDS011;4465;50.904;4.696;2023-09-08T08:33:24;12.07;;;6.65;;
8857;SDS011;4465;50.904;4.696;2023-09-08T08:35:51;17.23;;;7.20;;
8857;SDS011;4465;50.904;4.696;2023-09-08T08:38:18;12.68;;;7.03;;
8857;SDS011;4465;50.904;4.696;2023-09-08T08:40:44;13.40;;;6.97;;
8857;SDS011;4465;50.904;4.696;2023-09-08T08:43:10;10.82;;;6.63;;
8857;SDS011;4465;50.904;4.696;2023-09-08T08:45:37;11.60;;;6.60;;
8857;SDS011;4465;50.904;4.696;2023-09-08T08:48:07;11.88;;;6.60;;
8857;SDS011;4465;50.904;4.696;2023-09-08T08:50:36;13.32;;;6.75;;
8857;SDS011;4465;50.904;4.696;2023-09-08T08:53:03;11.90;;;6.85;;
8857;SDS011;4465;50.904;4.696;2023-09-08T08:55:31;13.65;;;6.95;;
8857;SDS011;4465;50.904;4.696;2023-09-08T08:58:03;11.35;;;6.95;;
8857;SDS011;4465;50.904;4.696;2023-09-08T09:00:29;13.32;;;6.50;;
8857;SDS011;4465;50.904;4.696;2023-09-08T09:02:59;11.38;;;7.00;;
8857;SDS011;4465;50.904;4.696;2023-09-08T09:05:25;14.77;;;6.77;;
8857;SDS011;4465;50.904;4.696;2023-09-08T09:07:54;14.00;;;6.05;;
8857;SDS011;4465;50.904;4.696;2023-09-08T09:10:23;13.15;;;7.10;;
8857;SDS011;4465;50.904;4.696;2023-09-08T09:12:51;10.50;;;6.50;;
8857;SDS011;4465;50.904;4.696;2023-09-08T09:15:20;12.27;;;6.93;;
8857;SDS011;4465;50.904;4.696;2023-09-08T09:18:06;11.68;;;6.65;;
8857;SDS011;4465;50.904;4.696;2023-09-08T09:20:33;9.75;;;6.63;;
8857;SDS011;4465;50.904;4.696;2023-09-08T09:22:59;10.00;;;6.60;;
8857;SDS011;4465;50.904;4.696;2023-09-08T09:25:26;10.82;;;6.40;;
8857;SDS011;4465;50.904;4.696;2023-09-08T09:27:58;11.18;;;6.40;;
8857;SDS011;4465;50.904;4.696;2023-09-08T09:30:28;11.30;;;6.38;;
8857;SDS011;4465;50.904;4.696;2023-09-08T09:33:12;13.18;;;6.25;;
8857;SDS011;4465;50.904;4.696;2023-09-08T09:35:41;9.98;;;6.20;;
8857;SDS011;4465;50.904;4.696;2023-09-08T09:38:11;15.02;;;6.30;;
8857;SDS011;4465;50.904;4.696;2023-09-08T09:40:40;11.70;;;6.88;;
8857;SDS011;4465;50.904;4.696;2023-09-08T09:43:09;11.10;;;6.43;;
8857;SDS011;4465;50.904;4.696;2023-09-08T09:45:38;11.63;;;6.05;;
8857;SDS011;4465;50.904;4.696;2023-09-08T09:48:08;15.50;;;6.28;;
8857;SDS011;4465;50.904;4.696;2023-09-08T09:50:41;12.32;;;7.00;;
8857;SDS011;4465;50.904;4.696;2023-09-08T09:53:11;18.55;;;6.70;;
8857;SDS011;4465;50.904;4.696;2023-09-08T09:55:39;9.07;;;6.13;;
8857;SDS011;4465;50.904;4.696;2023-09-08T09:58:07;7.85;;;5.68;;
8857;SDS011;4465;50.904;4.696;2023-09-08T10:00:34;11.18;;;6.80;;
8857;SDS011;4465;50.904;4.696;2023-09-08T10:03:05;11.27;;;6.65;;
8857;SDS011;4465;50.904;4.696;2023-09-08T10:05:32;11.48;;;6.63;;
8857;SDS011;4465;50.904;4.696;2023-09-08T10:07:59;12.50;;;6.35;;
8857;SDS011;4465;50.904;4.696;2023-09-08T10:10:26;9.18;;;5.80;;
8857;SDS011;4465;50.904;4.696;2023-09-08T10:13:00;10.30;;;5.93;;
8857;SDS011;4465;50.904;4.696;2023-09-08T10:15:28;8.48;;;5.60;;
8857;SDS011;4465;50.904;4.696;2023-09-08T10:17:58;8.35;;;5.60;;
8857;SDS011;4465;50.904;4.696;2023-09-08T10:20:28;9.15;;;5.97;;
8857;SDS011;4465;50.904;4.696;2023-09-08T10:25:35;10.38;;;5.57;;
8857;SDS011;4465;50.904;4.696;2023-09-08T10:28:10;11.85;;;5.63;;
8857;SDS011;4465;50.904;4.696;2023-09-08T10:30:37;12.55;;;5.93;;
8857;SDS011;4465;50.904;4.696;2023-09-08T10:33:03;9.10;;;5.80;;
8857;SDS011;4465;50.904;4.696;2023-09-08T10:35:33;9.95;;;5.68;;
8857;SDS011;4465;50.904;4.696;2023-09-08T10:40:50;8.98;;;5.78;;
8857;SDS011;4465;50.904;4.696;2023-09-08T10:43:20;8.63;;;5.68;;
8857;SDS011;4465;50.904;4.696;2023-09-08T10:45:46;13.77;;;5.68;;
8857;SDS011;4465;50.904;4.696;2023-09-08T10:48:15;10.63;;;5.90;;
8857;SDS011;4465;50.904;4.696;2023-09-08T10:50:41;8.13;;;5.75;;
8857;SDS011;4465;50.904;4.696;2023-09-08T10:58:21;9.05;;;5.43;;
8857;SDS011;4465;50.904;4.696;2023-09-08T11:00:59;9.82;;;5.32;;
8857;SDS011;4465;50.904;4.696;2023-09-08T11:06:04;9.00;;;5.43;;
8857;SDS011;4465;50.904;4.696;2023-09-08T11:08:33;10.55;;;4.72;;
8857;SDS011;4465;50.904;4.696;2023-09-08T11:11:01;7.63;;;4.28;;
8857;SDS011;4465;50.904;4.696;2023-09-08T11:13:28;9.60;;;4.63;;
8857;SDS011;4465;50.904;4.696;2023-09-08T11:15:56;7.43;;;4.40;;
8857;SDS011;4465;50.904;4.696;2023-09-08T11:18:25;7.20;;;4.97;;
8857;SDS011;4465;50.904;4.696;2023-09-08T11:20:55;8.18;;;5.32;;
8857;SDS011;4465;50.904;4.696;2023-09-08T11:23:21;7.72;;;4.38;;
8857;SDS011;4465;50.904;4.696;2023-09-08T11:25:51;12.52;;;5.63;;
8857;SDS011;4465;50.904;4.696;2023-09-08T11:28:18;10.57;;;5.07;;
8857;SDS011;4465;50.904;4.696;2023-09-08T11:30:48;7.40;;;4.45;;
8857;SDS011;4465;50.904;4.696;2023-09-08T11:33:15;10.70;;;4.63;;
8857;SDS011;4465;50.904;4.696;2023-09-08T11:35:42;6.53;;;4.47;;
8857;SDS011;4465;50.904;4.696;2023-09-08T11:38:10;7.78;;;4.70;;
8857;SDS011;4465;50.904;4.696;2023-09-08T11:40:39;10.02;;;5.00;;
8857;SDS011;4465;50.904;4.696;2023-09-08T11:43:08;6.65;;;4.63;;
8857;SDS011;4465;50.904;4.696;2023-09-08T11:45:35;8.43;;;5.20;;
8857;SDS011;4465;50.904;4.696;2023-09-08T11:48:01;7.78;;;4.15;;
8857;SDS011;4465;50.904;4.696;2023-09-08T11:50:29;6.90;;;4.63;;
8857;SDS011;4465;50.904;4.696;2023-09-08T11:52:56;6.07;;;4.03;;
8857;SDS011;4465;50.904;4.696;2023-09-08T11:55:28;8.48;;;4.53;;
8857;SDS011;4465;50.904;4.696;2023-09-08T11:57:54;7.85;;;4.20;;
8857;SDS011;4465;50.904;4.696;2023-09-08T12:00:26;7.03;;;4.78;;
8857;SDS011;4465;50.904;4.696;2023-09-08T12:02:53;7.95;;;4.22;;
8857;SDS011;4465;50.904;4.696;2023-09-08T12:05:23;7.17;;;4.50;;
8857;SDS011;4465;50.904;4.696;2023-09-08T12:07:55;10.07;;;5.05;;
8857;SDS011;4465;50.904;4.696;2023-09-08T12:10:26;7.70;;;4.63;;
8857;SDS011;4465;50.904;4.696;2023-09-08T12:12:52;10.18;;;4.47;;
8857;SDS011;4465;50.904;4.696;2023-09-08T12:18:00;8.00;;;3.90;;
8857;SDS011;4465;50.904;4.696;2023-09-08T12:20:39;7.32;;;4.25;;
8857;SDS011;4465;50.904;4.696;2023-09-08T12:23:20;8.07;;;4.90;;
8857;SDS011;4465;50.904;4.696;2023-09-08T12:25:50;10.35;;;4.68;;
8857;SDS011;4465;50.904;4.696;2023-09-08T12:28:18;8.43;;;4.63;;
8857;SDS011;4465;50.904;4.696;2023-09-08T12:30:51;7.43;;;4.72;;
8857;SDS011;4465;50.904;4.696;2023-09-08T12:33:18;10.60;;;5.47;;
8857;SDS011;4465;50.904;4.696;2023-09-08T12:35:45;8.38;;;4.35;;
8857;SDS011;4465;50.904;4.696;2023-09-08T12:38:13;9.82;;;4.95;;
8857;SDS011;4465;50.904;4.696;2023-09-08T12:40:41;10.10;;;4.57;;
8857;SDS011;4465;50.904;4.696;2023-09-08T12:43:07;6.40;;;4.38;;
8857;SDS011;4465;50.904;4.696;2023-09-08T12:45:38;6.55;;;4.50;;
8857;SDS011;4465;50.904;4.696;2023-09-08T12:48:07;6.90;;;4.82;;
8857;SDS011;4465;50.904;4.696;2023-09-08T12:50:34;8.93;;;4.90;;
8857;SDS011;4465;50.904;4.696;2023-09-08T12:53:00;6.40;;;4.25;;
8857;SDS011;4465;50.904;4.696;2023-09-08T12:55:26;7.50;;;4.32;;
8857;SDS011;4465;50.904;4.696;2023-09-08T12:57:54;9.80;;;4.43;;
8857;SDS011;4465;50.904;4.696;2023-09-08T13:00:22;10.35;;;4.97;;
8857;SDS011;4465;50.904;4.696;2023-09-08T13:02:48;10.07;;;4.20;;
8857;SDS011;4465;50.904;4.696;2023-09-08T13:05:15;8.37;;;4.97;;
8857;SDS011;4465;50.904;4.696;2023-09-08T13:07:44;8.80;;;4.40;;
8857;SDS011;4465;50.904;4.696;2023-09-08T13:10:10;7.93;;;4.35;;
8857;SDS011;4465;50.904;4.696;2023-09-08T13:12:38;6.85;;;4.32;;
8857;SDS011;4465;50.904;4.696;2023-09-08T13:15:06;6.30;;;3.97;;
8857;SDS011;4465;50.904;4.696;2023-09-08T13:17:32;11.30;;;4.70;;
8857;SDS011;4465;50.904;4.696;2023-09-08T13:19:58;7.05;;;3.83;;
8857;SDS011;4465;50.904;4.696;2023-09-08T13:22:24;10.27;;;4.57;;
8857;SDS011;4465;50.904;4.696;2023-09-08T13:24:49;8.98;;;4.35;;
8857;SDS011;4465;50.904;4.696;2023-09-08T13:27:15;8.02;;;4.43;;
8857;SDS011;4465;50.904;4.696;2023-09-08T13:29:43;10.70;;;4.35;;
8857;SDS011;4465;50.904;4.696;2023-09-08T13:32:09;7.68;;;3.58;;
8857;SDS011;4465;50.904;4.696;2023-09-08T13:34:37;5.43;;;3.40;;
8857;SDS011;4465;50.904;4.696;2023-09-08T13:37:03;6.68;;;4.10;;
8857;SDS011;4465;50.904;4.696;2023-09-08T13:39:30;9.77;;;3.60;;
8857;SDS011;4465;50.904;4.696;2023-09-08T13:41:56;7.65;;;3.28;;
8857;SDS011;4465;50.904;4.696;2023-09-08T13:44:24;6.47;;;3.80;;
8857;SDS011;4465;50.904;4.696;2023-09-08T13:46:53;8.13;;;3.70;;
8857;SDS011;4465;50.904;4.696;2023-09-08T13:49:21;5.63;;;3.50;;
8857;SDS011;4465;50.904;4.696;2023-09-08T13:51:48;8.07;;;3.67;;
8857;SDS011;4465;50.904;4.696;2023-09-08T13:54:18;5.47;;;3.67;;
8857;SDS011;4465;50.904;4.696;2023-09-08T13:56:44;5.28;;;3.20;;
8857;SDS011;4465;50.904;4.696;2023-09-08T13:59:12;6.97;;;3.30;;
8857;SDS011;4465;50.904;4.696;2023-09-08T14:01:38;8.23;;;3.65;;
8857;SDS011;4465;50.904;4.696;2023-09-08T14:04:04;5.45;;;3.42;;
8857;SDS011;4465;50.904;4.696;2023-09-08T14:06:35;6.60;;;4.10;;
8857;SDS011;4465;50.904;4.696;2023-09-08T14:09:03;8.48;;;4.40;;
8857;SDS011;4465;50.904;4.696;2023-09-08T14:11:29;7.75;;;3.55;;
8857;SDS011;4465;50.904;4.696;2023-09-08T14:13:57;7.05;;;3.70;;
8857;SDS011;4465;50.904;4.696;2023-09-08T14:16:24;10.38;;;3.67;;
8857;SDS011;4465;50.904;4.696;2023-09-08T14:18:50;9.63;;;3.85;;
8857;SDS011;4465;50.904;4.696;2023-09-08T14:21:19;11.30;;;3.65;;
8857;SDS011;4465;50.904;4.696;2023-09-08T14:23:45;14.02;;;4.07;;
8857;SDS011;4465;50.904;4.696;2023-09-08T14:26:11;6.50;;;3.63;;
8857;SDS011;4465;50.904;4.696;2023-09-08T14:28:38;8.02;;;3.92;;
8857;SDS011;4465;50.904;4.696;2023-09-08T14:31:05;7.88;;;3.92;;
8857;SDS011;4465;50.904;4.696;2023-09-08T14:33:31;8.50;;;4.22;;
8857;SDS011;4465;50.904;4.696;2023-09-08T14:35:57;10.75;;;3.65;;
8857;SDS011;4465;50.904;4.696;2023-09-08T14:38:23;12.52;;;3.53;;
8857;SDS011;4465;50.904;4.696;2023-09-08T14:40:56;11.98;;;3.60;;
8857;SDS011;4465;50.904;4.696;2023-09-08T14:43:24;12.43;;;3.60;;
8857;SDS011;4465;50.904;4.696;2023-09-08T14:45:50;6.95;;;3.35;;
8857;SDS011;4465;50.904;4.696;2023-09-08T14:48:19;9.80;;;4.28;;
8857;SDS011;4465;50.904;4.696;2023-09-08T14:50:45;12.70;;;3.80;;
8857;SDS011;4465;50.904;4.696;2023-09-08T14:53:12;10.55;;;3.63;;
8857;SDS011;4465;50.904;4.696;2023-09-08T14:55:38;12.93;;;3.75;;
8857;SDS011;4465;50.904;4.696;2023-09-08T14:58:04;10.13;;;4.73;;
8857;SDS011;4465;50.904;4.696;2023-09-08T15:00:33;10.50;;;3.78;;
8857;SDS011;4465;50.904;4.696;2023-09-08T15:03:01;12.55;;;4.13;;
8857;SDS011;4465;50.904;4.696;2023-09-08T15:05:30;12.40;;;3.53;;
8857;SDS011;4465;50.904;4.696;2023-09-08T15:08:00;9.13;;;3.92;;
8857;SDS011;4465;50.904;4.696;2023-09-08T15:12:54;9.95;;;3.78;;
8857;SDS011;4465;50.904;4.696;2023-09-08T15:15:22;12.98;;;4.35;;
8857;SDS011;4465;50.904;4.696;2023-09-08T15:17:51;11.50;;;3.42;;
8857;SDS011;4465;50.904;4.696;2023-09-08T15:20:18;9.75;;;3.78;;
8857;SDS011;4465;50.904;4.696;2023-09-08T15:22:45;9.57;;;4.10;;
8857;SDS011;4465;50.904;4.696;2023-09-08T15:25:11;10.80;;;3.67;;
8857;SDS011;4465;50.904;4.696;2023-09-08T15:27:40;9.27;;;3.85;;